Terminal Aerodrome Forecast
Issued by NWS

Home | Current Version | Previous Version | Text Only | Print | Product List | Glossary On
Versions: 1 2 3 4 5 6 7 8 9 10 11 12 13 14 15 16
642
FTUS46 KMTR 202339
TAFSJC
TAF
KSJC 202339Z 2100/2124 32010KT P6SM FEW008 SCT030 BKN045
     FM210200 30010KT P6SM FEW008 BKN030
     FM210600 VRB03KT P6SM FEW010 SCT030
     FM211700 31009KT P6SM SCT015
     FM212100 31012KT P6SM FEW015=

USA.gov is the U.S. government's official web portal to all federal, state and local government web resources and services.